sensor_id;sensor_type;location;lat;lon;timestamp;temperature;humidity
1377;DHT22;682;52.502;13.488;2024-02-04T00:01:32;8.90;1.00
1377;DHT22;682;52.502;13.488;2024-02-04T00:04:01;8.90;1.00
1377;DHT22;682;52.502;13.488;2024-02-04T00:06:28;8.80;1.00
1377;DHT22;682;52.502;13.488;2024-02-04T00:08:55;8.70;1.00
1377;DHT22;682;52.502;13.488;2024-02-04T00:11:22;8.60;1.00
1377;DHT22;682;52.502;13.488;2024-02-04T00:13:49;8.60;1.00
1377;DHT22;682;52.502;13.488;2024-02-04T00:16:15;8.50;1.00
1377;DHT22;682;52.502;13.488;2024-02-04T00:18:42;8.60;1.00
1377;DHT22;682;52.502;13.488;2024-02-04T00:21:11;8.60;1.00
1377;DHT22;682;52.502;13.488;2024-02-04T00:23:38;8.70;1.00
1377;DHT22;682;52.502;13.488;2024-02-04T00:26:05;8.70;1.00
1377;DHT22;682;52.502;13.488;2024-02-04T00:28:32;8.80;1.00
1377;DHT22;682;52.502;13.488;2024-02-04T00:30:59;8.80;1.00
1377;DHT22;682;52.502;13.488;2024-02-04T00:33:26;8.70;1.00
1377;DHT22;682;52.502;13.488;2024-02-04T00:35:53;8.60;1.00
1377;DHT22;682;52.502;13.488;2024-02-04T00:38:21;8.60;1.00
1377;DHT22;682;52.502;13.488;2024-02-04T00:40:48;8.60;1.00
1377;DHT22;682;52.502;13.488;2024-02-04T00:43:15;8.60;1.00
1377;DHT22;682;52.502;13.488;2024-02-04T00:45:42;8.50;1.00
1377;DHT22;682;52.502;13.488;2024-02-04T00:48:08;8.50;1.00
1377;DHT22;682;52.502;13.488;2024-02-04T00:50:35;8.50;1.00
1377;DHT22;682;52.502;13.488;2024-02-04T00:53:03;8.40;1.00
1377;DHT22;682;52.502;13.488;2024-02-04T00:55:32;8.40;1.00
1377;DHT22;682;52.502;13.488;2024-02-04T00:57:59;8.30;1.00
1377;DHT22;682;52.502;13.488;2024-02-04T01:00:27;8.20;1.00
1377;DHT22;682;52.502;13.488;2024-02-04T01:02:54;8.20;1.00
1377;DHT22;682;52.502;13.488;2024-02-04T01:05:21;8.10;1.00
1377;DHT22;682;52.502;13.488;2024-02-04T01:07:49;8.00;1.00
1377;DHT22;682;52.502;13.488;2024-02-04T01:10:16;8.00;1.00
1377;DHT22;682;52.502;13.488;2024-02-04T01:12:44;7.90;1.00
1377;DHT22;682;52.502;13.488;2024-02-04T01:15:11;7.90;1.00
1377;DHT22;682;52.502;13.488;2024-02-04T01:17:38;7.80;1.00
1377;DHT22;682;52.502;13.488;2024-02-04T01:20:06;7.70;1.00
1377;DHT22;682;52.502;13.488;2024-02-04T01:22:33;7.70;1.00
1377;DHT22;682;52.502;13.488;2024-02-04T01:25:01;7.60;1.00
1377;DHT22;682;52.502;13.488;2024-02-04T01:27:28;7.60;1.00
1377;DHT22;682;52.502;13.488;2024-02-04T01:29:56;7.60;1.00
1377;DHT22;682;52.502;13.488;2024-02-04T01:32:23;7.50;1.00
1377;DHT22;682;52.502;13.488;2024-02-04T01:34:50;7.50;1.00
1377;DHT22;682;52.502;13.488;2024-02-04T01:37:17;7.50;1.00
1377;DHT22;682;52.502;13.488;2024-02-04T01:39:44;7.50;1.00
1377;DHT22;682;52.502;13.488;2024-02-04T01:42:11;7.60;1.00
1377;DHT22;682;52.502;13.488;2024-02-04T01:44:38;7.60;1.00
1377;DHT22;682;52.502;13.488;2024-02-04T01:47:06;7.70;1.00
1377;DHT22;682;52.502;13.488;2024-02-04T01:49:33;7.70;1.00
1377;DHT22;682;52.502;13.488;2024-02-04T01:52:02;7.70;1.00
1377;DHT22;682;52.502;13.488;2024-02-04T01:54:31;7.70;1.00
1377;DHT22;682;52.502;13.488;2024-02-04T01:56:59;7.70;1.00
1377;DHT22;682;52.502;13.488;2024-02-04T01:59:27;7.60;1.00
1377;DHT22;682;52.502;13.488;2024-02-04T02:01:56;7.50;1.00
1377;DHT22;682;52.502;13.488;2024-02-04T02:04:25;7.50;1.00
1377;DHT22;682;52.502;13.488;2024-02-04T02:06:53;7.50;1.00
1377;DHT22;682;52.502;13.488;2024-02-04T02:09:20;7.40;1.00
1377;DHT22;682;52.502;13.488;2024-02-04T02:11:54;7.40;1.00
1377;DHT22;682;52.502;13.488;2024-02-04T02:14:24;7.30;1.00
1377;DHT22;682;52.502;13.488;2024-02-04T02:16:55;7.30;1.00
1377;DHT22;682;52.502;13.488;2024-02-04T02:19:42;7.30;1.00
1377;DHT22;682;52.502;13.488;2024-02-04T02:22:20;7.30;1.00
1377;DHT22;682;52.502;13.488;2024-02-04T02:24:51;7.30;1.00
1377;DHT22;682;52.502;13.488;2024-02-04T02:27:19;7.30;1.00
1377;DHT22;682;52.502;13.488;2024-02-04T02:29:46;7.30;1.00
1377;DHT22;682;52.502;13.488;2024-02-04T02:32:13;7.20;1.00
1377;DHT22;682;52.502;13.488;2024-02-04T02:34:40;7.20;1.00
1377;DHT22;682;52.502;13.488;2024-02-04T02:37:18;7.20;1.00
1377;DHT22;682;52.502;13.488;2024-02-04T02:39:52;7.10;1.00
1377;DHT22;682;52.502;13.488;2024-02-04T02:42:22;7.10;1.00
1377;DHT22;682;52.502;13.488;2024-02-04T02:44:50;7.10;1.00
1377;DHT22;682;52.502;13.488;2024-02-04T02:47:19;7.10;1.00
1377;DHT22;682;52.502;13.488;2024-02-04T02:49:47;7.10;1.00
1377;DHT22;682;52.502;13.488;2024-02-04T02:52:14;7.10;1.00
1377;DHT22;682;52.502;13.488;2024-02-04T02:54:41;7.10;1.00
1377;DHT22;682;52.502;13.488;2024-02-04T02:57:10;7.10;1.00
1377;DHT22;682;52.502;13.488;2024-02-04T02:59:37;7.20;1.00
1377;DHT22;682;52.502;13.488;2024-02-04T03:02:04;7.20;1.00
1377;DHT22;682;52.502;13.488;2024-02-04T03:04:31;7.20;1.00
1377;DHT22;682;52.502;13.488;2024-02-04T03:06:58;7.20;1.00
1377;DHT22;682;52.502;13.488;2024-02-04T03:09:25;7.20;1.00
1377;DHT22;682;52.502;13.488;2024-02-04T03:11:51;7.20;1.00
1377;DHT22;682;52.502;13.488;2024-02-04T03:14:20;7.30;1.00
1377;DHT22;682;52.502;13.488;2024-02-04T03:16:47;7.30;1.00
1377;DHT22;682;52.502;13.488;2024-02-04T03:19:14;7.40;1.00
1377;DHT22;682;52.502;13.488;2024-02-04T03:21:41;7.40;1.00
1377;DHT22;682;52.502;13.488;2024-02-04T03:24:07;7.50;1.00
1377;DHT22;682;52.502;13.488;2024-02-04T03:26:34;7.50;1.00
1377;DHT22;682;52.502;13.488;2024-02-04T03:29:01;7.50;1.00
1377;DHT22;682;52.502;13.488;2024-02-04T03:31:31;7.50;1.00
1377;DHT22;682;52.502;13.488;2024-02-04T03:33:58;7.50;1.00
1377;DHT22;682;52.502;13.488;2024-02-04T03:36:25;7.50;1.00
1377;DHT22;682;52.502;13.488;2024-02-04T03:38:52;7.60;1.00
1377;DHT22;682;52.502;13.488;2024-02-04T03:41:19;7.60;1.00
1377;DHT22;682;52.502;13.488;2024-02-04T03:43:46;7.60;1.00
1377;DHT22;682;52.502;13.488;2024-02-04T03:46:13;7.60;1.00
1377;DHT22;682;52.502;13.488;2024-02-04T03:48:42;7.70;1.00
1377;DHT22;682;52.502;13.488;2024-02-04T03:51:15;7.70;1.00
1377;DHT22;682;52.502;13.488;2024-02-04T03:53:42;7.60;1.00
1377;DHT22;682;52.502;13.488;2024-02-04T03:56:09;7.60;1.00
1377;DHT22;682;52.502;13.488;2024-02-04T03:58:36;7.70;1.00
1377;DHT22;682;52.502;13.488;2024-02-04T04:01:03;7.70;1.00
1377;DHT22;682;52.502;13.488;2024-02-04T04:03:30;7.70;1.00
1377;DHT22;682;52.502;13.488;2024-02-04T04:05:58;7.70;1.00
1377;DHT22;682;52.502;13.488;2024-02-04T04:08:25;7.70;1.00
1377;DHT22;682;52.502;13.488;2024-02-04T04:10:52;7.60;1.00
1377;DHT22;682;52.502;13.488;2024-02-04T04:13:19;7.60;1.00
1377;DHT22;682;52.502;13.488;2024-02-04T04:15:46;7.50;1.00
1377;DHT22;682;52.502;13.488;2024-02-04T04:18:13;7.40;1.00
1377;DHT22;682;52.502;13.488;2024-02-04T04:20:40;7.40;1.00
1377;DHT22;682;52.502;13.488;2024-02-04T04:23:09;7.40;1.00
1377;DHT22;682;52.502;13.488;2024-02-04T04:25:35;7.30;1.00
1377;DHT22;682;52.502;13.488;2024-02-04T04:28:03;7.30;1.00
1377;DHT22;682;52.502;13.488;2024-02-04T04:30:30;7.20;1.00
1377;DHT22;682;52.502;13.488;2024-02-04T04:32:57;7.20;1.00
1377;DHT22;682;52.502;13.488;2024-02-04T04:35:24;7.20;1.00
1377;DHT22;682;52.502;13.488;2024-02-04T04:37:51;7.20;1.00
1377;DHT22;682;52.502;13.488;2024-02-04T04:40:20;7.10;1.00
1377;DHT22;682;52.502;13.488;2024-02-04T04:42:47;7.20;1.00
1377;DHT22;682;52.502;13.488;2024-02-04T04:45:14;7.10;1.00
1377;DHT22;682;52.502;13.488;2024-02-04T04:47:41;7.10;1.00
1377;DHT22;682;52.502;13.488;2024-02-04T04:50:08;7.10;1.00
1377;DHT22;682;52.502;13.488;2024-02-04T04:52:35;7.00;1.00
1377;DHT22;682;52.502;13.488;2024-02-04T04:55:03;7.00;1.00
1377;DHT22;682;52.502;13.488;2024-02-04T04:57:31;7.00;1.00
1377;DHT22;682;52.502;13.488;2024-02-04T04:59:58;7.00;1.00
1377;DHT22;682;52.502;13.488;2024-02-04T05:02:29;7.00;1.00
1377;DHT22;682;52.502;13.488;2024-02-04T05:04:56;7.00;1.00
1377;DHT22;682;52.502;13.488;2024-02-04T05:07:23;7.00;1.00
1377;DHT22;682;52.502;13.488;2024-02-04T05:09:51;7.00;1.00
1377;DHT22;682;52.502;13.488;2024-02-04T05:12:18;7.00;1.00
1377;DHT22;682;52.502;13.488;2024-02-04T05:14:48;7.00;1.00
1377;DHT22;682;52.502;13.488;2024-02-04T05:17:15;6.90;1.00
1377;DHT22;682;52.502;13.488;2024-02-04T05:19:42;6.90;1.00
1377;DHT22;682;52.502;13.488;2024-02-04T05:22:09;6.90;1.00
1377;DHT22;682;52.502;13.488;2024-02-04T05:24:36;6.90;1.00
1377;DHT22;682;52.502;13.488;2024-02-04T05:27:03;6.80;1.00
1377;DHT22;682;52.502;13.488;2024-02-04T05:29:31;6.90;1.00
1377;DHT22;682;52.502;13.488;2024-02-04T05:31:59;6.90;1.00
1377;DHT22;682;52.502;13.488;2024-02-04T05:34:26;6.90;1.00
1377;DHT22;682;52.502;13.488;2024-02-04T05:36:55;6.80;1.00
1377;DHT22;682;52.502;13.488;2024-02-04T05:39:23;6.80;1.00
1377;DHT22;682;52.502;13.488;2024-02-04T05:41:50;6.80;1.00
1377;DHT22;682;52.502;13.488;2024-02-04T05:44:17;6.80;1.00
1377;DHT22;682;52.502;13.488;2024-02-04T05:46:44;6.80;1.00
1377;DHT22;682;52.502;13.488;2024-02-04T05:49:12;6.80;1.00
1377;DHT22;682;52.502;13.488;2024-02-04T05:51:40;6.80;1.00
1377;DHT22;682;52.502;13.488;2024-02-04T05:54:08;6.80;1.00
1377;DHT22;682;52.502;13.488;2024-02-04T05:56:35;6.80;1.00
1377;DHT22;682;52.502;13.488;2024-02-04T05:59:02;6.90;1.00
1377;DHT22;682;52.502;13.488;2024-02-04T06:01:29;6.90;1.00
1377;DHT22;682;52.502;13.488;2024-02-04T06:03:56;6.90;1.00
1377;DHT22;682;52.502;13.488;2024-02-04T06:06:24;6.90;1.00
1377;DHT22;682;52.502;13.488;2024-02-04T06:08:52;7.00;1.00
1377;DHT22;682;52.502;13.488;2024-02-04T06:11:18;7.00;1.00
1377;DHT22;682;52.502;13.488;2024-02-04T06:13:45;6.90;1.00
1377;DHT22;682;52.502;13.488;2024-02-04T06:16:12;6.90;1.00
1377;DHT22;682;52.502;13.488;2024-02-04T06:18:39;6.90;1.00
1377;DHT22;682;52.502;13.488;2024-02-04T06:21:07;6.90;1.00
1377;DHT22;682;52.502;13.488;2024-02-04T06:23:35;7.00;1.00
1377;DHT22;682;52.502;13.488;2024-02-04T06:26:05;7.00;1.00
1377;DHT22;682;52.502;13.488;2024-02-04T06:28:32;7.10;1.00
1377;DHT22;682;52.502;13.488;2024-02-04T06:30:59;7.10;1.00
1377;DHT22;682;52.502;13.488;2024-02-04T06:33:26;7.10;1.00
1377;DHT22;682;52.502;13.488;2024-02-04T06:35:53;7.10;1.00
1377;DHT22;682;52.502;13.488;2024-02-04T06:38:20;7.00;1.00
1377;DHT22;682;52.502;13.488;2024-02-04T06:40:48;7.00;1.00
1377;DHT22;682;52.502;13.488;2024-02-04T06:43:15;7.00;1.00
1377;DHT22;682;52.502;13.488;2024-02-04T06:45:42;7.00;1.00
1377;DHT22;682;52.502;13.488;2024-02-04T06:48:09;7.10;1.00
1377;DHT22;682;52.502;13.488;2024-02-04T06:50:37;7.10;1.00
1377;DHT22;682;52.502;13.488;2024-02-04T06:53:04;7.00;1.00
1377;DHT22;682;52.502;13.488;2024-02-04T06:55:33;7.00;1.00
1377;DHT22;682;52.502;13.488;2024-02-04T06:58:01;7.00;1.00
1377;DHT22;682;52.502;13.488;2024-02-04T07:00:28;7.10;1.00
1377;DHT22;682;52.502;13.488;2024-02-04T07:02:55;7.00;1.00
1377;DHT22;682;52.502;13.488;2024-02-04T07:05:22;7.10;1.00
1377;DHT22;682;52.502;13.488;2024-02-04T07:07:50;7.10;1.00
1377;DHT22;682;52.502;13.488;2024-02-04T07:10:18;7.10;1.00
1377;DHT22;682;52.502;13.488;2024-02-04T07:12:44;7.10;1.00
1377;DHT22;682;52.502;13.488;2024-02-04T07:15:13;7.20;1.00
1377;DHT22;682;52.502;13.488;2024-02-04T07:17:40;7.20;1.00
1377;DHT22;682;52.502;13.488;2024-02-04T07:20:07;7.20;1.00
1377;DHT22;682;52.502;13.488;2024-02-04T07:22:35;7.20;1.00
1377;DHT22;682;52.502;13.488;2024-02-04T07:25:02;7.20;1.00
1377;DHT22;682;52.502;13.488;2024-02-04T07:27:29;7.20;1.00
1377;DHT22;682;52.502;13.488;2024-02-04T07:29:56;7.20;1.00
1377;DHT22;682;52.502;13.488;2024-02-04T07:32:25;7.30;1.00
1377;DHT22;682;52.502;13.488;2024-02-04T07:34:53;7.30;1.00
1377;DHT22;682;52.502;13.488;2024-02-04T07:37:20;7.30;1.00
1377;DHT22;682;52.502;13.488;2024-02-04T07:39:46;7.40;1.00
1377;DHT22;682;52.502;13.488;2024-02-04T07:42:13;7.40;1.00
1377;DHT22;682;52.502;13.488;2024-02-04T07:44:40;7.40;1.00
1377;DHT22;682;52.502;13.488;2024-02-04T07:47:07;7.50;1.00
1377;DHT22;682;52.502;13.488;2024-02-04T07:49:35;7.50;1.00
1377;DHT22;682;52.502;13.488;2024-02-04T07:52:03;7.60;1.00
1377;DHT22;682;52.502;13.488;2024-02-04T07:54:30;7.60;1.00
1377;DHT22;682;52.502;13.488;2024-02-04T07:56:57;7.70;1.00
1377;DHT22;682;52.502;13.488;2024-02-04T07:59:24;7.70;1.00
1377;DHT22;682;52.502;13.488;2024-02-04T08:01:51;7.70;1.00
1377;DHT22;682;52.502;13.488;2024-02-04T08:04:18;7.70;1.00
1377;DHT22;682;52.502;13.488;2024-02-04T08:06:46;7.70;1.00
1377;DHT22;682;52.502;13.488;2024-02-04T08:09:13;7.80;1.00
1377;DHT22;682;52.502;13.488;2024-02-04T08:11:40;7.90;1.00
1377;DHT22;682;52.502;13.488;2024-02-04T08:14:07;8.00;1.00
1377;DHT22;682;52.502;13.488;2024-02-04T08:16:34;8.00;1.00
1377;DHT22;682;52.502;13.488;2024-02-04T08:19:01;8.10;1.00
1377;DHT22;682;52.502;13.488;2024-02-04T08:21:31;8.20;1.00
1377;DHT22;682;52.502;13.488;2024-02-04T08:24:00;8.30;1.00
1377;DHT22;682;52.502;13.488;2024-02-04T08:26:26;8.30;1.00
1377;DHT22;682;52.502;13.488;2024-02-04T08:28:53;8.40;1.00
1377;DHT22;682;52.502;13.488;2024-02-04T08:31:20;8.40;1.00
1377;DHT22;682;52.502;13.488;2024-02-04T08:33:47;8.40;1.00
1377;DHT22;682;52.502;13.488;2024-02-04T08:36:14;8.40;1.00
1377;DHT22;682;52.502;13.488;2024-02-04T08:38:41;8.40;1.00
1377;DHT22;682;52.502;13.488;2024-02-04T08:41:10;8.40;1.00
1377;DHT22;682;52.502;13.488;2024-02-04T08:43:37;8.40;1.00
1377;DHT22;682;52.502;13.488;2024-02-04T08:46:05;8.50;1.00
1377;DHT22;682;52.502;13.488;2024-02-04T08:48:32;8.50;1.00
1377;DHT22;682;52.502;13.488;2024-02-04T08:50:59;8.50;1.00
1377;DHT22;682;52.502;13.488;2024-02-04T08:53:26;8.50;1.00
1377;DHT22;682;52.502;13.488;2024-02-04T08:55:53;8.50;1.00
1377;DHT22;682;52.502;13.488;2024-02-04T08:58:22;8.60;1.00
1377;DHT22;682;52.502;13.488;2024-02-04T09:00:49;8.60;1.00
1377;DHT22;682;52.502;13.488;2024-02-04T09:03:16;8.60;1.00
1377;DHT22;682;52.502;13.488;2024-02-04T09:05:43;8.60;1.00
1377;DHT22;682;52.502;13.488;2024-02-04T09:08:10;8.70;1.00
1377;DHT22;682;52.502;13.488;2024-02-04T09:10:37;8.60;1.00
1377;DHT22;682;52.502;13.488;2024-02-04T09:13:04;8.70;1.00
1377;DHT22;682;52.502;13.488;2024-02-04T09:15:32;8.70;1.00
1377;DHT22;682;52.502;13.488;2024-02-04T09:17:59;8.80;1.00
1377;DHT22;682;52.502;13.488;2024-02-04T09:20:26;8.70;1.00
1377;DHT22;682;52.502;13.488;2024-02-04T09:22:53;8.80;1.00
1377;DHT22;682;52.502;13.488;2024-02-04T09:25:20;8.80;1.00
1377;DHT22;682;52.502;13.488;2024-02-04T09:27:47;8.80;1.00
1377;DHT22;682;52.502;13.488;2024-02-04T09:30:14;8.90;1.00
1377;DHT22;682;52.502;13.488;2024-02-04T09:32:42;9.00;1.00
1377;DHT22;682;52.502;13.488;2024-02-04T09:35:09;9.10;1.00
1377;DHT22;682;52.502;13.488;2024-02-04T09:37:36;9.20;1.00
1377;DHT22;682;52.502;13.488;2024-02-04T09:40:04;9.20;1.00
1377;DHT22;682;52.502;13.488;2024-02-04T09:42:31;9.30;1.00
1377;DHT22;682;52.502;13.488;2024-02-04T09:44:58;9.40;1.00
1377;DHT22;682;52.502;13.488;2024-02-04T09:47:25;9.40;1.00
1377;DHT22;682;52.502;13.488;2024-02-04T09:49:54;9.50;1.00
1377;DHT22;682;52.502;13.488;2024-02-04T09:52:28;9.60;1.00
1377;DHT22;682;52.502;13.488;2024-02-04T09:54:58;9.80;1.00
1377;DHT22;682;52.502;13.488;2024-02-04T09:57:25;9.80;1.00
1377;DHT22;682;52.502;13.488;2024-02-04T09:59:52;9.70;1.00
1377;DHT22;682;52.502;13.488;2024-02-04T10:02:20;9.80;1.00
1377;DHT22;682;52.502;13.488;2024-02-04T10:04:48;9.70;1.00
1377;DHT22;682;52.502;13.488;2024-02-04T10:07:17;9.80;1.00
1377;DHT22;682;52.502;13.488;2024-02-04T10:09:45;9.70;1.00
1377;DHT22;682;52.502;13.488;2024-02-04T10:12:12;9.50;1.00
1377;DHT22;682;52.502;13.488;2024-02-04T10:14:39;9.50;1.00
1377;DHT22;682;52.502;13.488;2024-02-04T10:17:06;9.60;1.00
1377;DHT22;682;52.502;13.488;2024-02-04T10:19:33;9.60;1.00
1377;DHT22;682;52.502;13.488;2024-02-04T10:22:00;9.60;1.00
1377;DHT22;682;52.502;13.488;2024-02-04T10:24:29;9.70;1.00
1377;DHT22;682;52.502;13.488;2024-02-04T10:26:57;9.90;1.00
1377;DHT22;682;52.502;13.488;2024-02-04T10:29:25;9.90;1.00
1377;DHT22;682;52.502;13.488;2024-02-04T10:31:53;9.90;1.00
1377;DHT22;682;52.502;13.488;2024-02-04T10:34:22;10.00;1.00
1377;DHT22;682;52.502;13.488;2024-02-04T10:36:49;10.10;1.00
1377;DHT22;682;52.502;13.488;2024-02-04T10:39:16;10.10;1.00
1377;DHT22;682;52.502;13.488;2024-02-04T10:41:49;10.00;1.00
1377;DHT22;682;52.502;13.488;2024-02-04T10:44:21;10.00;1.00
1377;DHT22;682;52.502;13.488;2024-02-04T10:46:50;10.10;1.00
1377;DHT22;682;52.502;13.488;2024-02-04T10:49:19;10.10;1.00
1377;DHT22;682;52.502;13.488;2024-02-04T10:51:46;10.20;1.00
1377;DHT22;682;52.502;13.488;2024-02-04T10:54:15;10.20;1.00
1377;DHT22;682;52.502;13.488;2024-02-04T10:56:45;10.10;1.00
1377;DHT22;682;52.502;13.488;2024-02-04T10:59:15;10.10;1.00
1377;DHT22;682;52.502;13.488;2024-02-04T11:01:45;10.20;1.00
1377;DHT22;682;52.502;13.488;2024-02-04T11:04:14;10.10;1.00
1377;DHT22;682;52.502;13.488;2024-02-04T11:06:44;10.00;1.00
1377;DHT22;682;52.502;13.488;2024-02-04T11:09:12;10.00;1.00
1377;DHT22;682;52.502;13.488;2024-02-04T11:11:40;10.00;1.00
1377;DHT22;682;52.502;13.488;2024-02-04T11:14:11;10.00;1.00
1377;DHT22;682;52.502;13.488;2024-02-04T11:17:00;10.10;1.00
1377;DHT22;682;52.502;13.488;2024-02-04T11:19:41;10.00;1.00
1377;DHT22;682;52.502;13.488;2024-02-04T11:25:42;9.80;1.00
1377;DHT22;682;52.502;13.488;2024-02-04T11:28:13;9.80;1.00
1377;DHT22;682;52.502;13.488;2024-02-04T11:30:44;9.80;1.00
1377;DHT22;682;52.502;13.488;2024-02-04T11:33:12;9.90;1.00
1377;DHT22;682;52.502;13.488;2024-02-04T11:35:40;9.90;1.00
1377;DHT22;682;52.502;13.488;2024-02-04T11:38:06;9.90;1.00
1377;DHT22;682;52.502;13.488;2024-02-04T11:40:36;9.90;1.00
1377;DHT22;682;52.502;13.488;2024-02-04T11:43:05;9.90;1.00
1377;DHT22;682;52.502;13.488;2024-02-04T11:45:32;9.80;1.00
1377;DHT22;682;52.502;13.488;2024-02-04T11:48:02;9.60;1.00
1377;DHT22;682;52.502;13.488;2024-02-04T11:50:29;9.60;1.00
1377;DHT22;682;52.502;13.488;2024-02-04T11:53:06;9.50;1.00
1377;DHT22;682;52.502;13.488;2024-02-04T11:55:34;9.50;1.00
1377;DHT22;682;52.502;13.488;2024-02-04T11:58:01;9.50;1.00
1377;DHT22;682;52.502;13.488;2024-02-04T12:00:29;9.50;1.00
1377;DHT22;682;52.502;13.488;2024-02-04T12:03:05;9.60;1.00
1377;DHT22;682;52.502;13.488;2024-02-04T12:05:33;9.80;1.00
1377;DHT22;682;52.502;13.488;2024-02-04T12:08:01;9.80;1.00
1377;DHT22;682;52.502;13.488;2024-02-04T12:10:31;9.90;1.00
1377;DHT22;682;52.502;13.488;2024-02-04T12:12:59;10.00;1.00
1377;DHT22;682;52.502;13.488;2024-02-04T12:15:26;10.10;1.00
1377;DHT22;682;52.502;13.488;2024-02-04T12:17:53;10.20;1.00
1377;DHT22;682;52.502;13.488;2024-02-04T12:20:21;10.10;1.00
1377;DHT22;682;52.502;13.488;2024-02-04T12:22:48;10.10;1.00
1377;DHT22;682;52.502;13.488;2024-02-04T12:25:16;10.10;1.00
1377;DHT22;682;52.502;13.488;2024-02-04T12:27:44;10.00;1.00
1377;DHT22;682;52.502;13.488;2024-02-04T12:30:13;9.90;1.00
1377;DHT22;682;52.502;13.488;2024-02-04T12:32:41;9.80;1.00
1377;DHT22;682;52.502;13.488;2024-02-04T12:35:08;9.70;1.00
1377;DHT22;682;52.502;13.488;2024-02-04T12:37:36;9.60;1.00
1377;DHT22;682;52.502;13.488;2024-02-04T12:40:04;9.60;1.00
1377;DHT22;682;52.502;13.488;2024-02-04T12:42:31;9.40;1.00
1377;DHT22;682;52.502;13.488;2024-02-04T12:44:59;9.30;1.00
1377;DHT22;682;52.502;13.488;2024-02-04T12:47:26;9.30;1.00
1377;DHT22;682;52.502;13.488;2024-02-04T12:49:59;9.30;1.00
1377;DHT22;682;52.502;13.488;2024-02-04T12:52:28;9.30;1.00
1377;DHT22;682;52.502;13.488;2024-02-04T12:54:58;9.30;1.00
1377;DHT22;682;52.502;13.488;2024-02-04T12:57:25;9.40;1.00
1377;DHT22;682;52.502;13.488;2024-02-04T13:00:03;9.40;1.00
1377;DHT22;682;52.502;13.488;2024-02-04T13:02:31;9.40;1.00
1377;DHT22;682;52.502;13.488;2024-02-04T13:04:59;9.50;1.00
1377;DHT22;682;52.502;13.488;2024-02-04T13:07:26;9.40;1.00
1377;DHT22;682;52.502;13.488;2024-02-04T13:09:59;9.40;1.00
1377;DHT22;682;52.502;13.488;2024-02-04T13:12:26;9.40;1.00
1377;DHT22;682;52.502;13.488;2024-02-04T13:14:53;9.40;1.00
1377;DHT22;682;52.502;13.488;2024-02-04T13:17:20;9.40;1.00
1377;DHT22;682;52.502;13.488;2024-02-04T13:19:47;9.50;1.00
1377;DHT22;682;52.502;13.488;2024-02-04T13:22:14;9.40;1.00
1377;DHT22;682;52.502;13.488;2024-02-04T13:24:41;9.40;1.00
1377;DHT22;682;52.502;13.488;2024-02-04T13:27:09;9.40;1.00
1377;DHT22;682;52.502;13.488;2024-02-04T13:29:36;9.50;1.00
1377;DHT22;682;52.502;13.488;2024-02-04T13:32:04;9.50;1.00
1377;DHT22;682;52.502;13.488;2024-02-04T13:34:31;9.40;1.00
1377;DHT22;682;52.502;13.488;2024-02-04T13:37:00;9.40;1.00
1377;DHT22;682;52.502;13.488;2024-02-04T13:39:27;9.40;1.00
1377;DHT22;682;52.502;13.488;2024-02-04T13:41:54;9.40;1.00
1377;DHT22;682;52.502;13.488;2024-02-04T13:44:23;9.40;1.00
1377;DHT22;682;52.502;13.488;2024-02-04T13:46:50;9.40;1.00
1377;DHT22;682;52.502;13.488;2024-02-04T13:49:16;9.40;1.00
1377;DHT22;682;52.502;13.488;2024-02-04T13:51:43;9.40;1.00
1377;DHT22;682;52.502;13.488;2024-02-04T13:54:10;9.40;1.00
1377;DHT22;682;52.502;13.488;2024-02-04T13:56:40;9.40;1.00
1377;DHT22;682;52.502;13.488;2024-02-04T13:59:07;9.30;1.00
1377;DHT22;682;52.502;13.488;2024-02-04T14:01:36;9.30;1.00
1377;DHT22;682;52.502;13.488;2024-02-04T14:04:03;9.30;1.00
1377;DHT22;682;52.502;13.488;2024-02-04T14:06:30;9.20;1.00
1377;DHT22;682;52.502;13.488;2024-02-04T14:08:57;9.30;1.00
1377;DHT22;682;52.502;13.488;2024-02-04T14:11:24;9.30;1.00
1377;DHT22;682;52.502;13.488;2024-02-04T14:13:51;9.40;1.00
1377;DHT22;682;52.502;13.488;2024-02-04T14:16:18;9.30;1.00
1377;DHT22;682;52.502;13.488;2024-02-04T14:18:46;9.30;1.00
1377;DHT22;682;52.502;13.488;2024-02-04T14:21:13;9.30;1.00
1377;DHT22;682;52.502;13.488;2024-02-04T14:23:40;9.30;1.00
1377;DHT22;682;52.502;13.488;2024-02-04T14:26:15;9.30;1.00
1377;DHT22;682;52.502;13.488;2024-02-04T14:28:42;9.30;1.00
1377;DHT22;682;52.502;13.488;2024-02-04T14:31:09;9.30;1.00
1377;DHT22;682;52.502;13.488;2024-02-04T14:33:36;9.30;1.00
1377;DHT22;682;52.502;13.488;2024-02-04T14:36:05;9.30;1.00
1377;DHT22;682;52.502;13.488;2024-02-04T14:38:33;9.30;1.00
1377;DHT22;682;52.502;13.488;2024-02-04T14:41:03;9.30;1.00
1377;DHT22;682;52.502;13.488;2024-02-04T14:43:30;9.30;1.00
1377;DHT22;682;52.502;13.488;2024-02-04T14:45:57;9.20;1.00
1377;DHT22;682;52.502;13.488;2024-02-04T14:48:26;9.20;1.00
1377;DHT22;682;52.502;13.488;2024-02-04T14:50:53;9.20;1.00
1377;DHT22;682;52.502;13.488;2024-02-04T14:53:23;9.20;1.00
1377;DHT22;682;52.502;13.488;2024-02-04T14:55:50;9.20;1.00
1377;DHT22;682;52.502;13.488;2024-02-04T14:58:17;9.20;1.00
1377;DHT22;682;52.502;13.488;2024-02-04T15:00:44;9.20;1.00
1377;DHT22;682;52.502;13.488;2024-02-04T15:03:11;9.20;1.00
1377;DHT22;682;52.502;13.488;2024-02-04T15:05:38;9.30;1.00
1377;DHT22;682;52.502;13.488;2024-02-04T15:08:07;9.30;1.00
1377;DHT22;682;52.502;13.488;2024-02-04T15:10:35;9.30;1.00
1377;DHT22;682;52.502;13.488;2024-02-04T15:13:03;9.20;1.00
1377;DHT22;682;52.502;13.488;2024-02-04T15:15:31;9.20;1.00
1377;DHT22;682;52.502;13.488;2024-02-04T15:17:58;9.20;1.00
1377;DHT22;682;52.502;13.488;2024-02-04T15:20:26;9.20;1.00
1377;DHT22;682;52.502;13.488;2024-02-04T15:22:54;9.20;1.00
1377;DHT22;682;52.502;13.488;2024-02-04T15:25:24;9.20;1.00
1377;DHT22;682;52.502;13.488;2024-02-04T15:27:52;9.20;1.00
1377;DHT22;682;52.502;13.488;2024-02-04T15:30:21;9.20;1.00
1377;DHT22;682;52.502;13.488;2024-02-04T15:32:48;9.30;1.00
1377;DHT22;682;52.502;13.488;2024-02-04T15:35:18;9.20;1.00
1377;DHT22;682;52.502;13.488;2024-02-04T15:37:45;9.30;1.00
1377;DHT22;682;52.502;13.488;2024-02-04T15:40:12;9.20;1.00
1377;DHT22;682;52.502;13.488;2024-02-04T15:42:40;9.20;1.00
1377;DHT22;682;52.502;13.488;2024-02-04T15:45:10;9.20;1.00
1377;DHT22;682;52.502;13.488;2024-02-04T15:47:50;9.20;1.00
1377;DHT22;682;52.502;13.488;2024-02-04T15:50:18;9.20;1.00
1377;DHT22;682;52.502;13.488;2024-02-04T15:52:46;9.20;1.00
1377;DHT22;682;52.502;13.488;2024-02-04T15:55:15;9.20;1.00
1377;DHT22;682;52.502;13.488;2024-02-04T15:57:46;9.20;1.00
1377;DHT22;682;52.502;13.488;2024-02-04T16:00:17;9.20;1.00
1377;DHT22;682;52.502;13.488;2024-02-04T16:02:48;9.20;1.00
1377;DHT22;682;52.502;13.488;2024-02-04T16:05:17;9.20;1.00
1377;DHT22;682;52.502;13.488;2024-02-04T16:07:45;9.20;1.00
1377;DHT22;682;52.502;13.488;2024-02-04T16:10:15;9.20;1.00
1377;DHT22;682;52.502;13.488;2024-02-04T16:12:53;9.20;1.00
1377;DHT22;682;52.502;13.488;2024-02-04T16:15:24;9.20;1.00
1377;DHT22;682;52.502;13.488;2024-02-04T16:17:52;9.20;1.00
1377;DHT22;682;52.502;13.488;2024-02-04T16:20:19;9.20;1.00
1377;DHT22;682;52.502;13.488;2024-02-04T16:22:48;9.20;1.00
1377;DHT22;682;52.502;13.488;2024-02-04T16:25:16;9.20;1.00
1377;DHT22;682;52.502;13.488;2024-02-04T16:27:44;9.20;1.00
1377;DHT22;682;52.502;13.488;2024-02-04T16:30:11;9.20;1.00
1377;DHT22;682;52.502;13.488;2024-02-04T16:32:40;9.20;1.00
1377;DHT22;682;52.502;13.488;2024-02-04T16:35:07;9.20;1.00
1377;DHT22;682;52.502;13.488;2024-02-04T16:37:34;9.10;1.00
1377;DHT22;682;52.502;13.488;2024-02-04T16:40:01;9.10;1.00
1377;DHT22;682;52.502;13.488;2024-02-04T16:42:31;9.20;1.00